Home   Weather   Germany   Ebersberg   Past weeks
Flag for Germany

Past Weather in Ebersberg, Bavaria, Germany — Yesterday and Last 2 Weeks

Currently: 36 °F. Low clouds. (Weather station: Munich / Franz Josef Strauss Airport, Germany). See more current weather

Past Weather in Ebersberg — Graph

°F

Ebersberg Temperature Yesterday

Maximum temperature yesterday: 39 °F (at 12:20 pm)
Minimum temperature yesterday: 32 °F (at 10:50 pm)
Average temperature yesterday: 36 °F

High & Low Weather Summary for the Past Weeks

 TemperatureHumidityPressure
High54 °F (Nov 17, 2:50 pm)100% (Nov 16, 9:20 am)30.45 "Hg (Nov 16, 9:20 am)
Low27 °F (Nov 25, 3:50 am)57% (Nov 21, 2:20 pm)29.45 "Hg (Nov 22, 3:20 am)
Average40 °F90%29.89 "Hg
* Reported Nov 16 9:20 am — Dec 1 9:50 am, Ebersberg. Weather by CustomWeather, © 2022

Note: Actual official high and low records may vary slightly from our data, if they occured in-between our weather recording intervals... More about our weather records

Ebersberg Weather History for the Previous 24 Hours

Scroll right to see more
 ConditionsComfort  
Time TempWeatherWind HumidityBarometerVisibility
9:50 am
Thu, Dec 1
36 °FLow clouds.3 mph93%30.15 "HgN/A
9:20 am36 °FLow clouds.2 mph93%30.15 "HgN/A
8:20 am36 °FLow clouds.2 mph93%30.15 "HgN/A
7:50 am36 °FLow clouds.5 mph87%30.15 "HgN/A
7:20 am36 °FLow clouds.5 mph93%30.15 "HgN/A
6:50 am36 °FLow clouds.3 mph93%30.15 "Hg6 mi
6:20 am36 °FLow clouds.3 mph93%30.15 "Hg6 mi
5:50 am36 °FLow clouds.2 mph87%30.12 "Hg6 mi
5:20 am36 °FLow clouds.3 mph87%30.15 "Hg6 mi
4:50 am36 °FLow clouds.3 mph93%30.12 "Hg4 mi
4:20 am36 °FLow clouds.2 mph93%30.12 "Hg4 mi
3:20 am34 °FFog.1 mph100%30.15 "Hg3 mi
2:50 am34 °FFog.1 mph100%30.15 "Hg3 mi
2:20 am34 °FFog.No wind93%30.15 "Hg3 mi
1:50 am34 °FFog.1 mph93%30.15 "Hg3 mi
12:20 am34 °FLow clouds.1 mph93%30.15 "Hg4 mi
11:50 pm
Wed, Nov 30
34 °FLow clouds.3 mph93%30.15 "Hg4 mi
11:20 pm34 °FPassing clouds.8 mph93%30.15 "Hg4 mi
10:50 pm32 °FPartly cloudy.6 mph93%30.15 "HgN/A
10:20 pm34 °FPassing clouds.5 mph93%30.15 "HgN/A
9:50 pm34 °FOvercast.3 mph87%30.15 "HgN/A
9:20 pm34 °FOvercast.3 mph93%30.15 "HgN/A
8:50 pm34 °FOvercast.3 mph93%30.15 "HgN/A
8:20 pm34 °FOvercast.3 mph93%30.15 "HgN/A
7:50 pm36 °FOvercast.3 mph87%30.15 "HgN/A
7:20 pm36 °FOvercast.7 mph81%30.15 "HgN/A
6:50 pm36 °FOvercast.6 mph81%30.15 "HgN/A
6:20 pm36 °FOvercast.5 mph81%30.15 "HgN/A
5:50 pm34 °FOvercast.3 mph87%30.15 "HgN/A
5:20 pm36 °FPassing clouds.3 mph81%30.15 "HgN/A
4:50 pm36 °FOvercast.6 mph81%30.12 "HgN/A
4:20 pm36 °FOvercast.7 mph87%30.15 "HgN/A
3:50 pm36 °FMostly cloudy.7 mph81%30.15 "HgN/A
3:20 pm37 °FOvercast.7 mph75%30.12 "HgN/A
2:50 pm37 °FOvercast.6 mph81%30.12 "HgN/A
2:20 pm37 °FMostly cloudy.6 mph81%30.12 "HgN/A
1:50 pm37 °FOvercast.8 mph81%30.12 "HgN/A
1:20 pm39 °FChilly.8 mph70%30.12 "HgN/A
12:50 pm39 °FOvercast.8 mph75%30.12 "HgN/A
12:20 pm39 °FOvercast.7 mph75%30.12 "HgN/A
11:50 am37 °FOvercast.8 mph87%30.12 "HgN/A
11:20 am37 °FMore clouds than sun.7 mph87%30.15 "HgN/A
10:50 am37 °FOvercast.5 mph87%30.15 "HgN/A
10:20 am37 °FOvercast.5 mph87%30.15 "HgN/A
Weather by CustomWeather, © 2022

See weather overview